sensor_id;sensor_type;location;lat;lon;timestamp;P1;durP1;ratioP1;P2;durP2;ratioP2
2750;SDS011;1383;48.362;10.908;2022-11-21T00:01:19;1.75;;;1.63;;
2750;SDS011;1383;48.362;10.908;2022-11-21T00:03:48;1.48;;;1.38;;
2750;SDS011;1383;48.362;10.908;2022-11-21T00:06:15;1.65;;;1.55;;
2750;SDS011;1383;48.362;10.908;2022-11-21T00:08:42;1.45;;;1.35;;
2750;SDS011;1383;48.362;10.908;2022-11-21T00:11:10;1.40;;;1.30;;
2750;SDS011;1383;48.362;10.908;2022-11-21T00:13:37;1.45;;;1.20;;
2750;SDS011;1383;48.362;10.908;2022-11-21T00:16:08;0.90;;;0.80;;
2750;SDS011;1383;48.362;10.908;2022-11-21T00:18:37;1.10;;;1.10;;
2750;SDS011;1383;48.362;10.908;2022-11-21T00:21:09;1.27;;;1.17;;
2750;SDS011;1383;48.362;10.908;2022-11-21T00:23:38;1.00;;;1.00;;
2750;SDS011;1383;48.362;10.908;2022-11-21T00:26:05;1.20;;;1.10;;
2750;SDS011;1383;48.362;10.908;2022-11-21T00:28:33;1.95;;;1.13;;
2750;SDS011;1383;48.362;10.908;2022-11-21T00:31:01;1.30;;;1.20;;
2750;SDS011;1383;48.362;10.908;2022-11-21T00:33:28;1.50;;;1.40;;
2750;SDS011;1383;48.362;10.908;2022-11-21T00:35:56;1.67;;;0.98;;
2750;SDS011;1383;48.362;10.908;2022-11-21T00:38:22;1.60;;;1.50;;
2750;SDS011;1383;48.362;10.908;2022-11-21T00:40:49;1.00;;;1.00;;
2750;SDS011;1383;48.362;10.908;2022-11-21T00:43:16;1.70;;;1.25;;
2750;SDS011;1383;48.362;10.908;2022-11-21T00:45:42;2.15;;;1.58;;
2750;SDS011;1383;48.362;10.908;2022-11-21T00:48:09;4.80;;;1.13;;
2750;SDS011;1383;48.362;10.908;2022-11-21T00:50:36;1.02;;;1.00;;
2750;SDS011;1383;48.362;10.908;2022-11-21T00:53:03;1.23;;;1.13;;
2750;SDS011;1383;48.362;10.908;2022-11-21T00:55:29;1.42;;;1.33;;
2750;SDS011;1383;48.362;10.908;2022-11-21T00:57:56;3.10;;;1.40;;
2750;SDS011;1383;48.362;10.908;2022-11-21T01:00:23;1.40;;;1.30;;
2750;SDS011;1383;48.362;10.908;2022-11-21T01:02:50;1.13;;;1.00;;
2750;SDS011;1383;48.362;10.908;2022-11-21T01:05:17;1.30;;;1.17;;
2750;SDS011;1383;48.362;10.908;2022-11-21T01:07:43;1.10;;;1.00;;
2750;SDS011;1383;48.362;10.908;2022-11-21T01:10:10;1.00;;;1.00;;
2750;SDS011;1383;48.362;10.908;2022-11-21T01:12:37;1.33;;;1.23;;
2750;SDS011;1383;48.362;10.908;2022-11-21T01:15:04;2.35;;;1.50;;
2750;SDS011;1383;48.362;10.908;2022-11-21T01:17:31;3.55;;;1.65;;
2750;SDS011;1383;48.362;10.908;2022-11-21T01:19:58;1.30;;;1.20;;
2750;SDS011;1383;48.362;10.908;2022-11-21T01:22:25;0.80;;;0.80;;
2750;SDS011;1383;48.362;10.908;2022-11-21T01:24:52;3.28;;;1.35;;
2750;SDS011;1383;48.362;10.908;2022-11-21T01:27:19;2.63;;;1.25;;
2750;SDS011;1383;48.362;10.908;2022-11-21T01:29:45;1.38;;;1.27;;
2750;SDS011;1383;48.362;10.908;2022-11-21T01:32:12;1.92;;;1.13;;
2750;SDS011;1383;48.362;10.908;2022-11-21T01:34:39;1.20;;;1.08;;
2750;SDS011;1383;48.362;10.908;2022-11-21T01:37:06;4.07;;;1.50;;
2750;SDS011;1383;48.362;10.908;2022-11-21T01:39:32;1.50;;;1.33;;
2750;SDS011;1383;48.362;10.908;2022-11-21T01:41:59;1.40;;;1.30;;
2750;SDS011;1383;48.362;10.908;2022-11-21T01:44:44;3.63;;;1.30;;
2750;SDS011;1383;48.362;10.908;2022-11-21T01:47:11;2.10;;;1.60;;
2750;SDS011;1383;48.362;10.908;2022-11-21T01:49:38;2.25;;;1.40;;
2750;SDS011;1383;48.362;10.908;2022-11-21T01:52:08;1.35;;;1.25;;
2750;SDS011;1383;48.362;10.908;2022-11-21T01:57:19;0.90;;;0.90;;
2750;SDS011;1383;48.362;10.908;2022-11-21T02:02:43;1.10;;;1.00;;
2750;SDS011;1383;48.362;10.908;2022-11-21T02:05:18;1.08;;;0.98;;
2750;SDS011;1383;48.362;10.908;2022-11-21T02:07:51;1.02;;;1.00;;
2750;SDS011;1383;48.362;10.908;2022-11-21T02:10:22;0.98;;;0.95;;
2750;SDS011;1383;48.362;10.908;2022-11-21T02:12:50;1.45;;;1.20;;
2750;SDS011;1383;48.362;10.908;2022-11-21T02:15:19;0.95;;;0.95;;
2750;SDS011;1383;48.362;10.908;2022-11-21T02:17:48;1.77;;;1.50;;
2750;SDS011;1383;48.362;10.908;2022-11-21T02:20:16;1.48;;;1.35;;
2750;SDS011;1383;48.362;10.908;2022-11-21T02:25:33;5.63;;;1.45;;
2750;SDS011;1383;48.362;10.908;2022-11-21T02:28:05;1.15;;;1.00;;
2750;SDS011;1383;48.362;10.908;2022-11-21T02:30:35;1.50;;;1.40;;
2750;SDS011;1383;48.362;10.908;2022-11-21T02:33:04;2.38;;;1.30;;
2750;SDS011;1383;48.362;10.908;2022-11-21T02:35:31;1.33;;;0.90;;
2750;SDS011;1383;48.362;10.908;2022-11-21T02:38:05;1.98;;;1.13;;
2750;SDS011;1383;48.362;10.908;2022-11-21T02:40:40;1.33;;;1.10;;
2750;SDS011;1383;48.362;10.908;2022-11-21T02:43:16;1.17;;;1.08;;
2750;SDS011;1383;48.362;10.908;2022-11-21T02:45:44;2.45;;;1.60;;
2750;SDS011;1383;48.362;10.908;2022-11-21T02:48:12;1.20;;;1.10;;
2750;SDS011;1383;48.362;10.908;2022-11-21T02:50:40;1.67;;;1.40;;
2750;SDS011;1383;48.362;10.908;2022-11-21T02:53:10;1.30;;;1.20;;
2750;SDS011;1383;48.362;10.908;2022-11-21T02:55:41;1.35;;;1.25;;
2750;SDS011;1383;48.362;10.908;2022-11-21T02:58:09;4.05;;;1.38;;
2750;SDS011;1383;48.362;10.908;2022-11-21T03:00:37;2.40;;;1.45;;
2750;SDS011;1383;48.362;10.908;2022-11-21T03:03:05;1.35;;;1.25;;
2750;SDS011;1383;48.362;10.908;2022-11-21T03:05:32;2.20;;;1.33;;
2750;SDS011;1383;48.362;10.908;2022-11-21T03:07:59;1.10;;;1.00;;
2750;SDS011;1383;48.362;10.908;2022-11-21T03:10:25;2.10;;;1.30;;
2750;SDS011;1383;48.362;10.908;2022-11-21T03:12:52;6.63;;;1.40;;
2750;SDS011;1383;48.362;10.908;2022-11-21T03:15:27;1.23;;;1.17;;
2750;SDS011;1383;48.362;10.908;2022-11-21T03:17:56;4.30;;;0.85;;
2750;SDS011;1383;48.362;10.908;2022-11-21T03:20:23;2.22;;;1.27;;
2750;SDS011;1383;48.362;10.908;2022-11-21T03:22:50;1.95;;;1.15;;
2750;SDS011;1383;48.362;10.908;2022-11-21T03:25:18;4.00;;;1.75;;
2750;SDS011;1383;48.362;10.908;2022-11-21T03:27:45;2.53;;;1.13;;
2750;SDS011;1383;48.362;10.908;2022-11-21T03:30:15;1.15;;;1.05;;
2750;SDS011;1383;48.362;10.908;2022-11-21T03:32:42;1.40;;;1.10;;
2750;SDS011;1383;48.362;10.908;2022-11-21T03:35:08;2.03;;;1.20;;
2750;SDS011;1383;48.362;10.908;2022-11-21T03:37:35;2.22;;;1.05;;
2750;SDS011;1383;48.362;10.908;2022-11-21T03:40:02;2.00;;;1.30;;
2750;SDS011;1383;48.362;10.908;2022-11-21T03:42:29;3.75;;;2.40;;
2750;SDS011;1383;48.362;10.908;2022-11-21T03:44:56;3.05;;;1.65;;
2750;SDS011;1383;48.362;10.908;2022-11-21T03:47:23;2.00;;;1.73;;
2750;SDS011;1383;48.362;10.908;2022-11-21T03:49:52;2.28;;;1.05;;
2750;SDS011;1383;48.362;10.908;2022-11-21T03:52:19;1.83;;;1.30;;
2750;SDS011;1383;48.362;10.908;2022-11-21T03:54:46;2.30;;;1.45;;
2750;SDS011;1383;48.362;10.908;2022-11-21T03:57:13;1.45;;;1.35;;
2750;SDS011;1383;48.362;10.908;2022-11-21T03:59:40;1.30;;;1.20;;
2750;SDS011;1383;48.362;10.908;2022-11-21T04:02:07;1.80;;;1.35;;
2750;SDS011;1383;48.362;10.908;2022-11-21T04:04:33;1.40;;;1.27;;
2750;SDS011;1383;48.362;10.908;2022-11-21T04:07:00;2.58;;;1.25;;
2750;SDS011;1383;48.362;10.908;2022-11-21T04:09:27;3.45;;;3.15;;
2750;SDS011;1383;48.362;10.908;2022-11-21T04:11:54;4.93;;;3.63;;
2750;SDS011;1383;48.362;10.908;2022-11-21T04:14:20;3.28;;;2.05;;
2750;SDS011;1383;48.362;10.908;2022-11-21T04:16:47;4.85;;;1.10;;
2750;SDS011;1383;48.362;10.908;2022-11-21T04:19:14;1.40;;;1.30;;
2750;SDS011;1383;48.362;10.908;2022-11-21T04:21:41;1.50;;;1.17;;
2750;SDS011;1383;48.362;10.908;2022-11-21T04:24:08;2.30;;;1.10;;
2750;SDS011;1383;48.362;10.908;2022-11-21T04:26:34;2.00;;;1.20;;
2750;SDS011;1383;48.362;10.908;2022-11-21T04:29:01;1.27;;;1.17;;
2750;SDS011;1383;48.362;10.908;2022-11-21T04:31:28;1.50;;;1.30;;
2750;SDS011;1383;48.362;10.908;2022-11-21T04:33:55;2.60;;;1.85;;
2750;SDS011;1383;48.362;10.908;2022-11-21T04:36:22;1.50;;;1.33;;
2750;SDS011;1383;48.362;10.908;2022-11-21T04:38:48;2.50;;;1.48;;
2750;SDS011;1383;48.362;10.908;2022-11-21T04:41:15;3.72;;;1.70;;
2750;SDS011;1383;48.362;10.908;2022-11-21T04:43:42;4.07;;;1.45;;
2750;SDS011;1383;48.362;10.908;2022-11-21T04:46:09;2.08;;;1.35;;
2750;SDS011;1383;48.362;10.908;2022-11-21T04:48:35;2.47;;;2.28;;
2750;SDS011;1383;48.362;10.908;2022-11-21T04:51:02;3.38;;;1.25;;
2750;SDS011;1383;48.362;10.908;2022-11-21T04:53:29;1.42;;;1.30;;
2750;SDS011;1383;48.362;10.908;2022-11-21T04:55:56;1.30;;;1.13;;
2750;SDS011;1383;48.362;10.908;2022-11-21T04:58:22;1.38;;;1.10;;
2750;SDS011;1383;48.362;10.908;2022-11-21T05:00:49;2.10;;;1.10;;
2750;SDS011;1383;48.362;10.908;2022-11-21T05:03:16;1.15;;;1.00;;
2750;SDS011;1383;48.362;10.908;2022-11-21T05:05:43;2.67;;;1.02;;
2750;SDS011;1383;48.362;10.908;2022-11-21T05:08:10;3.53;;;3.22;;
2750;SDS011;1383;48.362;10.908;2022-11-21T05:10:36;4.03;;;2.45;;
2750;SDS011;1383;48.362;10.908;2022-11-21T05:13:23;2.67;;;1.13;;
2750;SDS011;1383;48.362;10.908;2022-11-21T05:15:55;0.77;;;0.77;;
2750;SDS011;1383;48.362;10.908;2022-11-21T05:18:22;1.10;;;0.98;;
2750;SDS011;1383;48.362;10.908;2022-11-21T05:20:49;2.65;;;1.20;;
2750;SDS011;1383;48.362;10.908;2022-11-21T05:23:16;1.50;;;1.08;;
2750;SDS011;1383;48.362;10.908;2022-11-21T05:25:42;0.70;;;0.70;;
2750;SDS011;1383;48.362;10.908;2022-11-21T05:28:09;1.10;;;0.85;;
2750;SDS011;1383;48.362;10.908;2022-11-21T05:30:36;2.20;;;1.42;;
2750;SDS011;1383;48.362;10.908;2022-11-21T05:33:03;1.00;;;0.90;;
2750;SDS011;1383;48.362;10.908;2022-11-21T05:35:30;0.90;;;0.90;;
2750;SDS011;1383;48.362;10.908;2022-11-21T05:37:57;2.35;;;1.20;;
2750;SDS011;1383;48.362;10.908;2022-11-21T05:40:24;2.88;;;1.13;;
2750;SDS011;1383;48.362;10.908;2022-11-21T05:42:51;1.35;;;0.90;;
2750;SDS011;1383;48.362;10.908;2022-11-21T05:45:36;1.02;;;0.93;;
2750;SDS011;1383;48.362;10.908;2022-11-21T05:48:03;2.75;;;1.40;;
2750;SDS011;1383;48.362;10.908;2022-11-21T05:50:35;1.17;;;1.08;;
2750;SDS011;1383;48.362;10.908;2022-11-21T05:53:02;1.60;;;1.45;;
2750;SDS011;1383;48.362;10.908;2022-11-21T05:55:30;1.23;;;1.13;;
2750;SDS011;1383;48.362;10.908;2022-11-21T05:58:00;1.00;;;0.90;;
2750;SDS011;1383;48.362;10.908;2022-11-21T06:00:27;1.40;;;1.02;;
2750;SDS011;1383;48.362;10.908;2022-11-21T06:02:54;5.57;;;4.47;;
2750;SDS011;1383;48.362;10.908;2022-11-21T06:05:39;6.07;;;2.90;;
2750;SDS011;1383;48.362;10.908;2022-11-21T06:08:06;1.52;;;1.30;;
2750;SDS011;1383;48.362;10.908;2022-11-21T06:10:33;2.83;;;1.38;;
2750;SDS011;1383;48.362;10.908;2022-11-21T06:13:00;1.30;;;1.20;;
2750;SDS011;1383;48.362;10.908;2022-11-21T06:15:28;1.35;;;1.02;;
2750;SDS011;1383;48.362;10.908;2022-11-21T06:17:55;1.77;;;1.42;;
2750;SDS011;1383;48.362;10.908;2022-11-21T06:20:21;5.15;;;1.80;;
2750;SDS011;1383;48.362;10.908;2022-11-21T06:22:48;2.00;;;1.80;;
2750;SDS011;1383;48.362;10.908;2022-11-21T06:25:15;1.42;;;1.25;;
2750;SDS011;1383;48.362;10.908;2022-11-21T06:27:42;1.35;;;1.20;;
2750;SDS011;1383;48.362;10.908;2022-11-21T06:30:09;1.73;;;1.23;;
2750;SDS011;1383;48.362;10.908;2022-11-21T06:32:36;1.42;;;1.33;;
2750;SDS011;1383;48.362;10.908;2022-11-21T06:35:03;1.85;;;1.60;;
2750;SDS011;1383;48.362;10.908;2022-11-21T06:37:31;2.67;;;1.58;;
2750;SDS011;1383;48.362;10.908;2022-11-21T06:39:59;4.00;;;1.75;;
2750;SDS011;1383;48.362;10.908;2022-11-21T06:42:25;3.20;;;1.50;;
2750;SDS011;1383;48.362;10.908;2022-11-21T06:44:52;1.67;;;1.05;;
2750;SDS011;1383;48.362;10.908;2022-11-21T06:47:19;1.20;;;1.10;;
2750;SDS011;1383;48.362;10.908;2022-11-21T06:49:46;1.52;;;1.20;;
2750;SDS011;1383;48.362;10.908;2022-11-21T06:52:13;2.10;;;1.38;;
2750;SDS011;1383;48.362;10.908;2022-11-21T06:54:39;1.42;;;1.33;;
2750;SDS011;1383;48.362;10.908;2022-11-21T06:57:06;5.80;;;3.65;;
2750;SDS011;1383;48.362;10.908;2022-11-21T06:59:33;4.72;;;4.18;;
2750;SDS011;1383;48.362;10.908;2022-11-21T07:02:00;2.08;;;1.85;;
2750;SDS011;1383;48.362;10.908;2022-11-21T07:04:27;1.80;;;1.40;;
2750;SDS011;1383;48.362;10.908;2022-11-21T07:06:54;1.67;;;1.25;;
2750;SDS011;1383;48.362;10.908;2022-11-21T07:09:21;1.10;;;1.00;;
2750;SDS011;1383;48.362;10.908;2022-11-21T07:12:03;2.35;;;2.15;;
2750;SDS011;1383;48.362;10.908;2022-11-21T07:14:48;1.73;;;1.15;;
2750;SDS011;1383;48.362;10.908;2022-11-21T07:17:15;0.80;;;0.80;;
2750;SDS011;1383;48.362;10.908;2022-11-21T07:19:42;2.28;;;1.20;;
2750;SDS011;1383;48.362;10.908;2022-11-21T07:22:08;2.65;;;1.20;;
2750;SDS011;1383;48.362;10.908;2022-11-21T07:24:35;1.00;;;0.85;;
2750;SDS011;1383;48.362;10.908;2022-11-21T07:27:02;1.45;;;0.93;;
2750;SDS011;1383;48.362;10.908;2022-11-21T07:29:29;0.60;;;0.60;;
2750;SDS011;1383;48.362;10.908;2022-11-21T07:31:56;1.55;;;1.30;;
2750;SDS011;1383;48.362;10.908;2022-11-21T07:34:23;0.63;;;0.50;;
2750;SDS011;1383;48.362;10.908;2022-11-21T07:36:50;0.93;;;0.80;;
2750;SDS011;1383;48.362;10.908;2022-11-21T07:39:16;1.35;;;0.98;;
2750;SDS011;1383;48.362;10.908;2022-11-21T07:41:44;2.38;;;1.20;;
2750;SDS011;1383;48.362;10.908;2022-11-21T07:44:11;0.75;;;0.75;;
2750;SDS011;1383;48.362;10.908;2022-11-21T07:46:37;0.80;;;0.68;;
2750;SDS011;1383;48.362;10.908;2022-11-21T07:49:04;1.05;;;0.77;;
2750;SDS011;1383;48.362;10.908;2022-11-21T07:51:31;0.90;;;0.83;;
2750;SDS011;1383;48.362;10.908;2022-11-21T07:53:58;1.43;;;0.70;;
2750;SDS011;1383;48.362;10.908;2022-11-21T07:56:25;1.00;;;0.90;;
2750;SDS011;1383;48.362;10.908;2022-11-21T07:58:52;0.90;;;0.70;;
2750;SDS011;1383;48.362;10.908;2022-11-21T08:01:19;0.70;;;0.70;;
2750;SDS011;1383;48.362;10.908;2022-11-21T08:03:46;1.47;;;0.70;;
2750;SDS011;1383;48.362;10.908;2022-11-21T08:06:13;0.90;;;0.70;;
2750;SDS011;1383;48.362;10.908;2022-11-21T08:08:40;0.87;;;0.80;;
2750;SDS011;1383;48.362;10.908;2022-11-21T08:11:07;1.63;;;0.80;;
2750;SDS011;1383;48.362;10.908;2022-11-21T08:13:33;0.88;;;0.80;;
2750;SDS011;1383;48.362;10.908;2022-11-21T08:16:02;1.10;;;1.00;;
2750;SDS011;1383;48.362;10.908;2022-11-21T08:18:29;0.70;;;0.65;;
2750;SDS011;1383;48.362;10.908;2022-11-21T08:20:59;0.80;;;0.80;;
2750;SDS011;1383;48.362;10.908;2022-11-21T08:23:27;1.10;;;0.90;;
2750;SDS011;1383;48.362;10.908;2022-11-21T08:25:54;0.85;;;0.80;;
2750;SDS011;1383;48.362;10.908;2022-11-21T08:28:21;0.80;;;0.80;;
2750;SDS011;1383;48.362;10.908;2022-11-21T08:30:48;0.90;;;0.90;;
2750;SDS011;1383;48.362;10.908;2022-11-21T08:33:15;1.88;;;1.20;;
2750;SDS011;1383;48.362;10.908;2022-11-21T08:35:41;1.57;;;0.83;;
2750;SDS011;1383;48.362;10.908;2022-11-21T08:38:08;1.25;;;1.15;;
2750;SDS011;1383;48.362;10.908;2022-11-21T08:40:35;3.93;;;1.70;;
2750;SDS011;1383;48.362;10.908;2022-11-21T08:43:03;3.55;;;0.90;;
2750;SDS011;1383;48.362;10.908;2022-11-21T08:45:32;1.57;;;0.80;;
2750;SDS011;1383;48.362;10.908;2022-11-21T08:48:00;1.23;;;1.10;;
2750;SDS011;1383;48.362;10.908;2022-11-21T08:50:27;3.30;;;1.23;;
2750;SDS011;1383;48.362;10.908;2022-11-21T08:53:00;1.90;;;1.10;;
2750;SDS011;1383;48.362;10.908;2022-11-21T08:55:28;1.20;;;0.93;;
2750;SDS011;1383;48.362;10.908;2022-11-21T08:57:56;2.42;;;1.38;;
2750;SDS011;1383;48.362;10.908;2022-11-21T09:00:23;2.42;;;1.40;;
2750;SDS011;1383;48.362;10.908;2022-11-21T09:02:50;1.80;;;1.35;;
2750;SDS011;1383;48.362;10.908;2022-11-21T09:05:17;2.30;;;1.10;;
2750;SDS011;1383;48.362;10.908;2022-11-21T09:07:44;5.22;;;1.77;;
2750;SDS011;1383;48.362;10.908;2022-11-21T09:10:12;2.75;;;1.33;;
2750;SDS011;1383;48.362;10.908;2022-11-21T09:12:40;2.10;;;1.00;;
2750;SDS011;1383;48.362;10.908;2022-11-21T09:15:08;3.30;;;1.20;;
2750;SDS011;1383;48.362;10.908;2022-11-21T09:17:54;1.15;;;1.00;;
2750;SDS011;1383;48.362;10.908;2022-11-21T09:20:30;2.22;;;1.30;;
2750;SDS011;1383;48.362;10.908;2022-11-21T09:23:05;1.43;;;1.10;;
2750;SDS011;1383;48.362;10.908;2022-11-21T09:25:37;1.52;;;1.05;;
2750;SDS011;1383;48.362;10.908;2022-11-21T09:28:05;3.33;;;1.23;;
2750;SDS011;1383;48.362;10.908;2022-11-21T09:30:33;3.97;;;1.50;;
2750;SDS011;1383;48.362;10.908;2022-11-21T09:33:08;2.27;;;1.20;;
2750;SDS011;1383;48.362;10.908;2022-11-21T09:35:36;1.73;;;1.20;;
2750;SDS011;1383;48.362;10.908;2022-11-21T09:38:04;1.30;;;1.20;;
2750;SDS011;1383;48.362;10.908;2022-11-21T09:40:31;5.80;;;1.40;;
2750;SDS011;1383;48.362;10.908;2022-11-21T09:43:12;1.67;;;1.17;;
2750;SDS011;1383;48.362;10.908;2022-11-21T09:48:12;1.53;;;1.23;;
2750;SDS011;1383;48.362;10.908;2022-11-21T09:50:49;2.10;;;1.37;;
2750;SDS011;1383;48.362;10.908;2022-11-21T09:53:20;3.20;;;2.10;;
2750;SDS011;1383;48.362;10.908;2022-11-21T09:55:58;3.60;;;2.70;;
2750;SDS011;1383;48.362;10.908;2022-11-21T09:58:39;2.53;;;1.50;;
2750;SDS011;1383;48.362;10.908;2022-11-21T10:01:36;2.00;;;1.10;;
2750;SDS011;1383;48.362;10.908;2022-11-21T10:04:04;3.43;;;1.20;;
2750;SDS011;1383;48.362;10.908;2022-11-21T10:06:32;4.13;;;1.47;;
2750;SDS011;1383;48.362;10.908;2022-11-21T10:14:58;2.73;;;1.50;;
2750;SDS011;1383;48.362;10.908;2022-11-21T10:17:41;1.90;;;1.20;;
2750;SDS011;1383;48.362;10.908;2022-11-21T10:20:49;2.87;;;1.17;;
2750;SDS011;1383;48.362;10.908;2022-11-21T10:23:33;2.87;;;1.47;;
2750;SDS011;1383;48.362;10.908;2022-11-21T10:29:02;2.33;;;1.73;;
2750;SDS011;1383;48.362;10.908;2022-11-21T10:31:37;4.60;;;3.20;;
2750;SDS011;1383;48.362;10.908;2022-11-21T10:34:10;4.13;;;1.90;;
2750;SDS011;1383;48.362;10.908;2022-11-21T10:36:41;1.73;;;1.10;;
2750;SDS011;1383;48.362;10.908;2022-11-21T10:39:12;4.57;;;1.63;;
2750;SDS011;1383;48.362;10.908;2022-11-21T10:41:50;1.13;;;1.03;;
2750;SDS011;1383;48.362;10.908;2022-11-21T10:44:26;1.20;;;1.10;;
2750;SDS011;1383;48.362;10.908;2022-11-21T10:47:23;2.10;;;1.50;;
2750;SDS011;1383;48.362;10.908;2022-11-21T10:52:37;11.10;;;1.40;;
2750;SDS011;1383;48.362;10.908;2022-11-21T10:55:14;2.97;;;1.80;;
2750;SDS011;1383;48.362;10.908;2022-11-21T10:57:49;3.63;;;1.47;;
2750;SDS011;1383;48.362;10.908;2022-11-21T11:05:34;1.33;;;1.10;;
2750;SDS011;1383;48.362;10.908;2022-11-21T11:10:44;5.50;;;1.60;;
2750;SDS011;1383;48.362;10.908;2022-11-21T11:13:27;3.03;;;1.20;;
2750;SDS011;1383;48.362;10.908;2022-11-21T11:16:16;3.33;;;1.50;;
2750;SDS011;1383;48.362;10.908;2022-11-21T11:18:58;3.23;;;1.37;;
2750;SDS011;1383;48.362;10.908;2022-11-21T11:21:42;1.77;;;1.50;;
2750;SDS011;1383;48.362;10.908;2022-11-21T11:29:24;3.80;;;1.70;;
2750;SDS011;1383;48.362;10.908;2022-11-21T11:31:54;1.63;;;1.27;;
2750;SDS011;1383;48.362;10.908;2022-11-21T11:34:22;2.50;;;1.00;;
2750;SDS011;1383;48.362;10.908;2022-11-21T11:37:00;1.17;;;0.77;;
2750;SDS011;1383;48.362;10.908;2022-11-21T11:46:34;2.20;;;1.30;;
2750;SDS011;1383;48.362;10.908;2022-11-21T11:49:09;1.90;;;0.80;;
2750;SDS011;1383;48.362;10.908;2022-11-21T11:51:58;1.47;;;0.90;;
2750;SDS011;1383;48.362;10.908;2022-11-21T11:54:30;1.50;;;0.83;;
2750;SDS011;1383;48.362;10.908;2022-11-21T11:57:07;2.53;;;2.00;;
2750;SDS011;1383;48.362;10.908;2022-11-21T11:59:39;1.00;;;0.90;;
2750;SDS011;1383;48.362;10.908;2022-11-21T12:02:22;6.03;;;3.40;;
2750;SDS011;1383;48.362;10.908;2022-11-21T12:04:56;4.00;;;1.93;;
2750;SDS011;1383;48.362;10.908;2022-11-21T12:07:52;3.47;;;1.60;;
2750;SDS011;1383;48.362;10.908;2022-11-21T12:11:15;2.60;;;1.20;;
2750;SDS011;1383;48.362;10.908;2022-11-21T12:14:12;2.70;;;1.50;;
2750;SDS011;1383;48.362;10.908;2022-11-21T12:17:06;3.33;;;1.00;;
2750;SDS011;1383;48.362;10.908;2022-11-21T12:19:36;1.60;;;1.50;;
2750;SDS011;1383;48.362;10.908;2022-11-21T12:22:04;4.17;;;1.70;;
2750;SDS011;1383;48.362;10.908;2022-11-21T12:24:36;2.30;;;1.60;;
2750;SDS011;1383;48.362;10.908;2022-11-21T12:32:54;4.80;;;2.67;;
2750;SDS011;1383;48.362;10.908;2022-11-21T12:38:49;1.70;;;1.20;;
2750;SDS011;1383;48.362;10.908;2022-11-21T12:47:05;4.27;;;2.23;;
2750;SDS011;1383;48.362;10.908;2022-11-21T12:53:00;3.47;;;2.33;;
2750;SDS011;1383;48.362;10.908;2022-11-21T12:55:58;2.70;;;1.80;;
2750;SDS011;1383;48.362;10.908;2022-11-21T12:58:38;3.73;;;2.00;;
2750;SDS011;1383;48.362;10.908;2022-11-21T13:03:49;2.00;;;0.87;;
2750;SDS011;1383;48.362;10.908;2022-11-21T13:06:39;2.13;;;1.87;;
2750;SDS011;1383;48.362;10.908;2022-11-21T13:09:11;2.27;;;1.90;;
2750;SDS011;1383;48.362;10.908;2022-11-21T13:11:59;2.23;;;1.47;;
2750;SDS011;1383;48.362;10.908;2022-11-21T13:19:48;1.90;;;1.70;;
2750;SDS011;1383;48.362;10.908;2022-11-21T13:25:02;2.87;;;1.93;;
2750;SDS011;1383;48.362;10.908;2022-11-21T13:30:48;2.60;;;1.90;;
2750;SDS011;1383;48.362;10.908;2022-11-21T13:47:00;3.43;;;2.17;;
2750;SDS011;1383;48.362;10.908;2022-11-21T13:52:26;3.33;;;1.87;;
2750;SDS011;1383;48.362;10.908;2022-11-21T14:11:49;3.23;;;1.47;;
2750;SDS011;1383;48.362;10.908;2022-11-21T14:14:51;2.03;;;1.00;;
2750;SDS011;1383;48.362;10.908;2022-11-21T14:17:22;4.07;;;1.40;;
2750;SDS011;1383;48.362;10.908;2022-11-21T14:19:59;1.70;;;1.33;;
2750;SDS011;1383;48.362;10.908;2022-11-21T14:22:45;1.83;;;1.20;;
2750;SDS011;1383;48.362;10.908;2022-11-21T14:25:19;2.83;;;1.63;;
2750;SDS011;1383;48.362;10.908;2022-11-21T14:27:56;2.13;;;1.80;;
2750;SDS011;1383;48.362;10.908;2022-11-21T14:30:26;8.17;;;2.10;;
2750;SDS011;1383;48.362;10.908;2022-11-21T14:32:56;2.37;;;1.40;;
2750;SDS011;1383;48.362;10.908;2022-11-21T14:35:42;3.70;;;1.30;;
2750;SDS011;1383;48.362;10.908;2022-11-21T14:38:20;4.00;;;1.20;;
2750;SDS011;1383;48.362;10.908;2022-11-21T14:40:48;3.45;;;3.10;;
2750;SDS011;1383;48.362;10.908;2022-11-21T14:43:31;10.60;;;6.00;;
2750;SDS011;1383;48.362;10.908;2022-11-21T14:45:58;7.67;;;4.67;;
2750;SDS011;1383;48.362;10.908;2022-11-21T14:48:26;2.33;;;1.47;;
2750;SDS011;1383;48.362;10.908;2022-11-21T14:50:55;6.25;;;2.00;;
2750;SDS011;1383;48.362;10.908;2022-11-21T14:53:24;3.10;;;1.20;;
2750;SDS011;1383;48.362;10.908;2022-11-21T14:55:53;2.00;;;1.30;;
2750;SDS011;1383;48.362;10.908;2022-11-21T14:58:26;2.78;;;1.50;;
2750;SDS011;1383;48.362;10.908;2022-11-21T15:03:30;2.58;;;2.10;;
2750;SDS011;1383;48.362;10.908;2022-11-21T15:06:02;2.97;;;2.15;;
2750;SDS011;1383;48.362;10.908;2022-11-21T15:08:33;3.23;;;1.50;;
2750;SDS011;1383;48.362;10.908;2022-11-21T15:11:23;3.10;;;2.10;;
2750;SDS011;1383;48.362;10.908;2022-11-21T15:16:55;3.97;;;1.80;;
2750;SDS011;1383;48.362;10.908;2022-11-21T15:19:24;3.20;;;2.37;;
2750;SDS011;1383;48.362;10.908;2022-11-21T15:21:56;3.03;;;2.33;;
2750;SDS011;1383;48.362;10.908;2022-11-21T15:24:41;5.32;;;1.90;;
2750;SDS011;1383;48.362;10.908;2022-11-21T15:43:47;3.80;;;2.22;;
2750;SDS011;1383;48.362;10.908;2022-11-21T15:46:22;3.67;;;1.83;;
2750;SDS011;1383;48.362;10.908;2022-11-21T15:51:24;3.70;;;2.55;;
2750;SDS011;1383;48.362;10.908;2022-11-21T15:54:16;2.88;;;2.38;;
2750;SDS011;1383;48.362;10.908;2022-11-21T15:56:45;3.65;;;3.20;;
2750;SDS011;1383;48.362;10.908;2022-11-21T15:59:12;7.80;;;3.40;;
2750;SDS011;1383;48.362;10.908;2022-11-21T16:01:40;7.25;;;3.10;;
2750;SDS011;1383;48.362;10.908;2022-11-21T16:04:09;4.47;;;3.03;;
2750;SDS011;1383;48.362;10.908;2022-11-21T16:06:37;5.30;;;3.40;;
2750;SDS011;1383;48.362;10.908;2022-11-21T16:09:04;4.80;;;3.10;;
2750;SDS011;1383;48.362;10.908;2022-11-21T16:11:32;3.60;;;2.60;;
2750;SDS011;1383;48.362;10.908;2022-11-21T16:14:03;7.93;;;4.45;;
2750;SDS011;1383;48.362;10.908;2022-11-21T16:16:32;5.90;;;4.35;;
2750;SDS011;1383;48.362;10.908;2022-11-21T16:19:08;4.47;;;3.58;;
2750;SDS011;1383;48.362;10.908;2022-11-21T16:21:36;10.40;;;4.88;;
2750;SDS011;1383;48.362;10.908;2022-11-21T16:24:03;7.18;;;4.63;;
2750;SDS011;1383;48.362;10.908;2022-11-21T16:26:30;7.15;;;4.18;;
2750;SDS011;1383;48.362;10.908;2022-11-21T16:28:59;9.40;;;5.60;;
2750;SDS011;1383;48.362;10.908;2022-11-21T16:31:27;6.72;;;4.55;;
2750;SDS011;1383;48.362;10.908;2022-11-21T16:33:55;5.80;;;5.18;;
2750;SDS011;1383;48.362;10.908;2022-11-21T16:36:27;5.90;;;4.70;;
2750;SDS011;1383;48.362;10.908;2022-11-21T16:38:55;5.85;;;5.25;;
2750;SDS011;1383;48.362;10.908;2022-11-21T16:41:28;10.05;;;5.10;;
2750;SDS011;1383;48.362;10.908;2022-11-21T16:43:55;5.15;;;4.65;;
2750;SDS011;1383;48.362;10.908;2022-11-21T16:46:22;5.55;;;3.95;;
2750;SDS011;1383;48.362;10.908;2022-11-21T16:48:57;8.95;;;5.05;;
2750;SDS011;1383;48.362;10.908;2022-11-21T16:51:26;8.35;;;5.60;;
2750;SDS011;1383;48.362;10.908;2022-11-21T16:53:53;5.82;;;4.47;;
2750;SDS011;1383;48.362;10.908;2022-11-21T16:56:19;8.70;;;5.00;;
2750;SDS011;1383;48.362;10.908;2022-11-21T16:58:46;6.20;;;5.57;;
2750;SDS011;1383;48.362;10.908;2022-11-21T17:01:17;5.95;;;4.78;;
2750;SDS011;1383;48.362;10.908;2022-11-21T17:03:49;4.40;;;4.00;;
2750;SDS011;1383;48.362;10.908;2022-11-21T17:06:17;8.88;;;5.70;;
2750;SDS011;1383;48.362;10.908;2022-11-21T17:08:52;6.70;;;4.30;;
2750;SDS011;1383;48.362;10.908;2022-11-21T17:11:23;6.93;;;4.60;;
2750;SDS011;1383;48.362;10.908;2022-11-21T17:13:53;8.13;;;4.50;;
2750;SDS011;1383;48.362;10.908;2022-11-21T17:16:21;11.20;;;4.63;;
2750;SDS011;1383;48.362;10.908;2022-11-21T17:18:55;6.70;;;5.03;;
2750;SDS011;1383;48.362;10.908;2022-11-21T17:21:24;8.35;;;4.30;;
2750;SDS011;1383;48.362;10.908;2022-11-21T17:23:51;5.47;;;4.00;;
2750;SDS011;1383;48.362;10.908;2022-11-21T17:26:19;4.32;;;3.95;;
2750;SDS011;1383;48.362;10.908;2022-11-21T17:28:51;6.32;;;3.40;;
2750;SDS011;1383;48.362;10.908;2022-11-21T17:31:19;5.63;;;3.53;;
2750;SDS011;1383;48.362;10.908;2022-11-21T17:33:47;5.68;;;4.22;;